Federal Champlain — V7NK2 — position and weather

sailwx.info

Track history (hours):
 
Tides and Currents Weather Stations Pressure Air Temp Water Temp Dewpoint Dewpoint Depression Visibility Wind Speed Wind Dir Waves Ship Positions

Federal Champlain

Last reported at 2018-Jul-12 10:34 UTC. Time now 2018-Jul-21 11:29 UTC.
Position N 27°34' W 014°03'.
Warning: this ship's position is 9 days out of date.

Length 200 m; draft 10.8 m.

Type: Cargo ship. MMSI: 538006468.

Date/timePositionNaut miles runAvg speedWind from/ knotsBaromVisibWave heightAir tempDewpointWater temp
2018-Jul-12 10:34N 27°34' W 014°03'211.3
2018-Jul-12 10:24N 27°35' W 014°02'711.8
2018-Jul-12 09:50N 27°41' W 013°57'611.8
2018-Jul-12 09:19N 27°45' W 013°53'411.7
2018-Jul-12 09:00N 27°48' W 013°50'611.7
2018-Jul-12 08:30N 27°53' W 013°46'611.6
2018-Jul-12 08:00N 27°57' W 013°42'611.6
2018-Jul-12 07:30N 28°01' W 013°38'611.5
2018-Jul-12 07:00N 28°06' W 013°34'611.5
2018-Jul-12 06:30N 28°10' W 013°29'611.5
2018-Jul-12 06:00N 28°15' W 013°26'611.4
2018-Jul-12 05:30N 28°19' W 013°22'611.2
2018-Jul-12 05:00N 28°24' W 013°18'611.2
2018-Jul-12 04:30N 28°28' W 013°14'611.5
2018-Jul-12 04:00N 28°33' W 013°10'611.6
2018-Jul-12 03:30N 28°38' W 013°07'611.5
2018-Jul-12 03:00N 28°43' W 013°03'611.4
2018-Jul-12 02:30N 28°48' W 012°59'611.4
2018-Jul-12 02:00N 28°52' W 012°56'611.0
2018-Jul-12 01:30N 28°57' W 012°52'910.7
2018-Jul-12 00:39N 29°04' W 012°46'310.7
2018-Jul-12 00:24N 29°06' W 012°44'610.8
2018-Jul-11 23:54N 29°11' W 012°41'410.8
2018-Jul-11 23:29N 29°14' W 012°37'510.8
2018-Jul-11 23:00N 29°18' W 012°34'6210.8
2018-Jul-11 17:15N 30°09' W 011°51'310.9
2018-Jul-11 17:00N 30°11' W 011°50'610.8
2018-Jul-11 16:29N 30°15' W 011°46'511.2
2018-Jul-11 16:00N 30°20' W 011°42'711.4
2018-Jul-11 15:23N 30°26' W 011°38'511.3
2018-Jul-11 14:55N 30°30' W 011°35'511.0
2018-Jul-11 14:28N 30°34' W 011°32'511.3
2018-Jul-11 14:00N 30°39' W 011°28'711.1
2018-Jul-11 13:22N 30°44' W 011°23'511.3
2018-Jul-11 12:58N 30°48' W 011°20'511.3
2018-Jul-11 12:30N 30°52' W 011°17'1011.3
2018-Jul-11 11:35N 31°01' W 011°10'1510.9
2018-Jul-11 10:13N 31°13' W 011°00'310.5
2018-Jul-11 09:57N 31°16' W 010°58'510.5
2018-Jul-11 09:26N 31°20' W 010°55'510.7
2018-Jul-11 09:00N 31°24' W 010°52'2611.3
2018-Jul-11 06:43N 31°45' W 010°34'1011.3
2018-Jul-11 05:51N 31°53' W 010°28'411.5
2018-Jul-11 05:30N 31°57' W 010°25'811.4
2018-Jul-11 04:49N 32°03' W 010°20'411.4
2018-Jul-11 04:29N 32°06' W 010°18'511.3
2018-Jul-11 04:00N 32°11' W 010°14'1911.0
2018-Jul-11 02:18N 32°26' W 010°01'1310.9
2018-Jul-11 01:07N 32°37' W 009°52'211.0
2018-Jul-11 00:57N 32°38' W 009°51'6111.5
2018-Jul-10 19:37N 33°17' W 008°55'211.9
2018-Jul-10 19:29N 33°18' W 008°53'711.9
2018-Jul-10 18:54N 33°22' W 008°46'511.8
2018-Jul-10 18:28N 33°24' W 008°41'711.9
2018-Jul-10 17:52N 33°28' W 008°33'1211.8
2018-Jul-10 16:49N 33°35' W 008°21'411.9
2018-Jul-10 16:30N 33°37' W 008°17'1111.6
2018-Jul-10 15:36N 33°41' W 008°06'95 2.0
2018-Jul-08 16:55N 34°55' W 006°53'1614.1
2018-Jul-08 15:47N 35°09' W 006°43'414.2
2018-Jul-08 15:29N 35°12' W 006°41'4713.3
2018-Jul-08 11:56N 35°50' W 006°05'2611.8
2018-Jul-08 09:46N 35°58' W 005°35'312.4
2018-Jul-08 09:30N 35°59' W 005°32'611.9
2018-Jul-08 09:00N 36°01' W 005°24'5 9.4
2018-Jul-08 08:30N 36°05' W 005°22'2 4.1
2018-Jul-08 07:58N 36°07' W 005°21'0 0.1
2018-Jul-08 07:28N 36°07' W 005°22'0 0.1
2018-Jul-08 06:58N 36°07' W 005°21'0 0.1
2018-Jul-08 06:28N 36°07' W 005°21'0 0.1
2018-Jul-08 05:58N 36°07' W 005°21'0 0.0
2018-Jul-08 05:04N 36°07' W 005°21'0 0.0
2018-Jul-08 04:58N 36°07' W 005°21'0 0.1
2018-Jul-08 04:28N 36°07' W 005°21'0 0.0
2018-Jul-08 03:52N 36°07' W 005°21'0 0.0
2018-Jul-08 03:28N 36°07' W 005°21'0 0.1
2018-Jul-08 02:58N 36°07' W 005°21'0 0.0
2018-Jul-08 02:28N 36°07' W 005°21'0 0.0
2018-Jul-08 01:58N 36°07' W 005°21'0 0.0
2018-Jul-08 01:22N 36°07' W 005°21'0 0.0
2018-Jul-08 00:58N 36°07' W 005°21'0 0.0
2018-Jul-08 00:28N 36°07' W 005°21'0 0.0
2018-Jul-07 23:58N 36°07' W 005°21'0 0.0
2018-Jul-07 23:22N 36°07' W 005°21'0 0.1
2018-Jul-07 22:58N 36°07' W 005°21'0 0.1
2018-Jul-07 22:28N 36°07' W 005°21'0 0.0
2018-Jul-07 21:52N 36°07' W 005°21'0 0.0
2018-Jul-07 21:28N 36°07' W 005°21'0 0.0
2018-Jul-07 20:58N 36°07' W 005°21'0 0.0
2018-Jul-07 20:28N 36°07' W 005°21'0 0.1
2018-Jul-07 19:58N 36°07' W 005°21'0 0.1
2018-Jul-07 19:28N 36°07' W 005°22'0 0.1
2018-Jul-07 18:58N 36°07' W 005°22'0 0.1
2018-Jul-07 18:28N 36°07' W 005°21'0 0.1
2018-Jul-07 17:58N 36°07' W 005°21'0 0.2
2018-Jul-07 17:28N 36°07' W 005°22'0 0.2
2018-Jul-07 16:58N 36°07' W 005°21'0 0.1
2018-Jul-07 16:30N 36°07' W 005°21'2 3.6
2018-Jul-07 16:00N 36°05' W 005°21'3 6.5
2018-Jul-07 15:30N 36°05' W 005°17'611.3
2018-Jul-07 15:00N 36°07' W 005°10'2 0.2
2018-Jul-07 05:54N 36°06' W 005°08'511.3
2018-Jul-07 05:30N 36°04' W 005°13'2 3.3
2018-Jul-07 05:00N 36°03' W 005°11'18211.2
2018-Jul-06 12:43N 36°21' W 001°27'511.2
2018-Jul-06 12:15N 36°22' W 001°20'1512.0
2018-Jul-06 11:00N 36°28' W 001°03'612.0
2018-Jul-06 10:28N 36°28' W 000°55'612.2
2018-Jul-06 10:00N 36°30' W 000°48'612.5
2018-Jul-06 09:30N 36°31' W 000°40'612.4
2018-Jul-06 09:00N 36°33' W 000°33'2012.3
2018-Jul-06 07:21N 36°38' W 000°09'514.1
2018-Jul-06 07:00N 36°39' W 000°03'714.1
2018-Jul-06 06:29N 36°41' E 000°06'612.8
2018-Jul-06 06:00N 36°43' E 000°13'612.0
2018-Jul-06 05:30N 36°44' E 000°21'612.1
2018-Jul-06 05:00N 36°46' E 000°28'612.1
2018-Jul-06 04:30N 36°47' E 000°35'612.1
2018-Jul-06 04:00N 36°49' E 000°43'612.1
2018-Jul-06 03:30N 36°50' E 000°50'612.0
2018-Jul-06 03:00N 36°52' E 000°57'611.9
2018-Jul-06 02:30N 36°53' E 001°04'611.8
2018-Jul-06 02:00N 36°55' E 001°11'611.4
2018-Jul-06 01:30N 36°56' E 001°18'611.2
2018-Jul-06 01:00N 36°58' E 001°25'511.0
2018-Jul-06 00:30N 36°59' E 001°32'611.0
2018-Jul-06 00:00N 37°01' E 001°39'511.0
2018-Jul-05 23:30N 37°02' E 001°45'611.0
2018-Jul-05 22:59N 37°04' E 001°52'511.2
2018-Jul-05 22:30N 37°05' E 001°59'1011.5
2018-Jul-05 21:36N 37°08' E 002°11'111.4
2018-Jul-05 21:30N 37°08' E 002°12'611.5
2018-Jul-05 21:00N 37°09' E 002°19'611.6
2018-Jul-05 20:29N 37°11' E 002°27'611.6
2018-Jul-05 19:58N 37°12' E 002°34'15411.9
2018-Jul-05 06:59N 37°27' E 005°47'1412.7
2018-Jul-05 05:51N 37°28' E 006°05'7611.6
2018-Jul-04 23:19N 37°33' E 007°40'2511.4
2018-Jul-04 21:08N 37°35' E 008°12'  
Track history (hours):
 
Tides and Currents Weather Stations Pressure Air Temp Water Temp Dewpoint Dewpoint Depression Visibility Wind Speed Wind Dir Waves Ship Positions

Federal Champlain

Last reported at 2018-Jul-12 10:34 UTC. Time now 2018-Jul-21 11:29 UTC.
Position N 27°34' W 014°03'.
Warning: this ship's position is 9 days out of date.

Length 200 m; draft 10.8 m.

Type: Cargo ship. MMSI: 538006468.

Date/timePositionNaut miles runAvg speedWind from/ knotsBaromVisibWave heightAir tempDewpointWater temp
2018-Jul-12 10:34N 27°34' W 014°03'211.3
2018-Jul-12 10:24N 27°35' W 014°02'711.8
2018-Jul-12 09:50N 27°41' W 013°57'611.8
2018-Jul-12 09:19N 27°45' W 013°53'411.7
2018-Jul-12 09:00N 27°48' W 013°50'611.7
2018-Jul-12 08:30N 27°53' W 013°46'611.6
2018-Jul-12 08:00N 27°57' W 013°42'611.6
2018-Jul-12 07:30N 28°01' W 013°38'611.5
2018-Jul-12 07:00N 28°06' W 013°34'611.5
2018-Jul-12 06:30N 28°10' W 013°29'611.5
2018-Jul-12 06:00N 28°15' W 013°26'611.4
2018-Jul-12 05:30N 28°19' W 013°22'611.2
2018-Jul-12 05:00N 28°24' W 013°18'611.2
2018-Jul-12 04:30N 28°28' W 013°14'611.5
2018-Jul-12 04:00N 28°33' W 013°10'611.6
2018-Jul-12 03:30N 28°38' W 013°07'611.5
2018-Jul-12 03:00N 28°43' W 013°03'611.4
2018-Jul-12 02:30N 28°48' W 012°59'611.4
2018-Jul-12 02:00N 28°52' W 012°56'611.0
2018-Jul-12 01:30N 28°57' W 012°52'910.7
2018-Jul-12 00:39N 29°04' W 012°46'310.7
2018-Jul-12 00:24N 29°06' W 012°44'610.8
2018-Jul-11 23:54N 29°11' W 012°41'410.8
2018-Jul-11 23:29N 29°14' W 012°37'510.8
2018-Jul-11 23:00N 29°18' W 012°34'6210.8
2018-Jul-11 17:15N 30°09' W 011°51'310.9
2018-Jul-11 17:00N 30°11' W 011°50'610.8
2018-Jul-11 16:29N 30°15' W 011°46'511.2
2018-Jul-11 16:00N 30°20' W 011°42'711.4
2018-Jul-11 15:23N 30°26' W 011°38'511.3
2018-Jul-11 14:55N 30°30' W 011°35'511.0
2018-Jul-11 14:28N 30°34' W 011°32'511.3
2018-Jul-11 14:00N 30°39' W 011°28'711.1
2018-Jul-11 13:22N 30°44' W 011°23'511.3
2018-Jul-11 12:58N 30°48' W 011°20'511.3
2018-Jul-11 12:30N 30°52' W 011°17'1011.3
2018-Jul-11 11:35N 31°01' W 011°10'1510.9
2018-Jul-11 10:13N 31°13' W 011°00'310.5
2018-Jul-11 09:57N 31°16' W 010°58'510.5
2018-Jul-11 09:26N 31°20' W 010°55'510.7
2018-Jul-11 09:00N 31°24' W 010°52'2611.3
2018-Jul-11 06:43N 31°45' W 010°34'1011.3
2018-Jul-11 05:51N 31°53' W 010°28'411.5
2018-Jul-11 05:30N 31°57' W 010°25'811.4
2018-Jul-11 04:49N 32°03' W 010°20'411.4
2018-Jul-11 04:29N 32°06' W 010°18'511.3
2018-Jul-11 04:00N 32°11' W 010°14'1911.0
2018-Jul-11 02:18N 32°26' W 010°01'1310.9
2018-Jul-11 01:07N 32°37' W 009°52'211.0
2018-Jul-11 00:57N 32°38' W 009°51'6111.5
2018-Jul-10 19:37N 33°17' W 008°55'211.9
2018-Jul-10 19:29N 33°18' W 008°53'711.9
2018-Jul-10 18:54N 33°22' W 008°46'511.8
2018-Jul-10 18:28N 33°24' W 008°41'711.9
2018-Jul-10 17:52N 33°28' W 008°33'1211.8
2018-Jul-10 16:49N 33°35' W 008°21'411.9
2018-Jul-10 16:30N 33°37' W 008°17'1111.6
2018-Jul-10 15:36N 33°41' W 008°06'95 2.0
2018-Jul-08 16:55N 34°55' W 006°53'1614.1
2018-Jul-08 15:47N 35°09' W 006°43'414.2
2018-Jul-08 15:29N 35°12' W 006°41'4713.3
2018-Jul-08 11:56N 35°50' W 006°05'2611.8
2018-Jul-08 09:46N 35°58' W 005°35'312.4
2018-Jul-08 09:30N 35°59' W 005°32'611.9
2018-Jul-08 09:00N 36°01' W 005°24'5 9.4
2018-Jul-08 08:30N 36°05' W 005°22'2 4.1
2018-Jul-08 07:58N 36°07' W 005°21'0 0.1
2018-Jul-08 07:28N 36°07' W 005°22'0 0.1
2018-Jul-08 06:58N 36°07' W 005°21'0 0.1
2018-Jul-08 06:28N 36°07' W 005°21'0 0.1
2018-Jul-08 05:58N 36°07' W 005°21'0 0.0
2018-Jul-08 05:04N 36°07' W 005°21'0 0.0
2018-Jul-08 04:58N 36°07' W 005°21'0 0.1
2018-Jul-08 04:28N 36°07' W 005°21'0 0.0
2018-Jul-08 03:52N 36°07' W 005°21'0 0.0
2018-Jul-08 03:28N 36°07' W 005°21'0 0.1
2018-Jul-08 02:58N 36°07' W 005°21'0 0.0
2018-Jul-08 02:28N 36°07' W 005°21'0 0.0
2018-Jul-08 01:58N 36°07' W 005°21'0 0.0
2018-Jul-08 01:22N 36°07' W 005°21'0 0.0
2018-Jul-08 00:58N 36°07' W 005°21'0 0.0
2018-Jul-08 00:28N 36°07' W 005°21'0 0.0
2018-Jul-07 23:58N 36°07' W 005°21'0 0.0
2018-Jul-07 23:22N 36°07' W 005°21'0 0.1
2018-Jul-07 22:58N 36°07' W 005°21'0 0.1
2018-Jul-07 22:28N 36°07' W 005°21'0 0.0
2018-Jul-07 21:52N 36°07' W 005°21'0 0.0
2018-Jul-07 21:28N 36°07' W 005°21'0 0.0
2018-Jul-07 20:58N 36°07' W 005°21'0 0.0
2018-Jul-07 20:28N 36°07' W 005°21'0 0.1
2018-Jul-07 19:58N 36°07' W 005°21'0 0.1
2018-Jul-07 19:28N 36°07' W 005°22'0 0.1
2018-Jul-07 18:58N 36°07' W 005°22'0 0.1
2018-Jul-07 18:28N 36°07' W 005°21'0 0.1
2018-Jul-07 17:58N 36°07' W 005°21'0 0.2
2018-Jul-07 17:28N 36°07' W 005°22'0 0.2
2018-Jul-07 16:58N 36°07' W 005°21'0 0.1
2018-Jul-07 16:30N 36°07' W 005°21'2 3.6
2018-Jul-07 16:00N 36°05' W 005°21'3 6.5
2018-Jul-07 15:30N 36°05' W 005°17'611.3
2018-Jul-07 15:00N 36°07' W 005°10'2 0.2
2018-Jul-07 05:54N 36°06' W 005°08'511.3
2018-Jul-07 05:30N 36°04' W 005°13'2 3.3
2018-Jul-07 05:00N 36°03' W 005°11'18211.2
2018-Jul-06 12:43N 36°21' W 001°27'511.2
2018-Jul-06 12:15N 36°22' W 001°20'1512.0
2018-Jul-06 11:00N 36°28' W 001°03'612.0
2018-Jul-06 10:28N 36°28' W 000°55'612.2
2018-Jul-06 10:00N 36°30' W 000°48'612.5
2018-Jul-06 09:30N 36°31' W 000°40'612.4
2018-Jul-06 09:00N 36°33' W 000°33'2012.3
2018-Jul-06 07:21N 36°38' W 000°09'514.1
2018-Jul-06 07:00N 36°39' W 000°03'714.1
2018-Jul-06 06:29N 36°41' E 000°06'612.8
2018-Jul-06 06:00N 36°43' E 000°13'612.0
2018-Jul-06 05:30N 36°44' E 000°21'612.1
2018-Jul-06 05:00N 36°46' E 000°28'612.1
2018-Jul-06 04:30N 36°47' E 000°35'612.1
2018-Jul-06 04:00N 36°49' E 000°43'612.1
2018-Jul-06 03:30N 36°50' E 000°50'612.0
2018-Jul-06 03:00N 36°52' E 000°57'611.9
2018-Jul-06 02:30N 36°53' E 001°04'611.8
2018-Jul-06 02:00N 36°55' E 001°11'611.4
2018-Jul-06 01:30N 36°56' E 001°18'611.2
2018-Jul-06 01:00N 36°58' E 001°25'511.0
2018-Jul-06 00:30N 36°59' E 001°32'611.0
2018-Jul-06 00:00N 37°01' E 001°39'511.0
2018-Jul-05 23:30N 37°02' E 001°45'611.0
2018-Jul-05 22:59N 37°04' E 001°52'511.2
2018-Jul-05 22:30N 37°05' E 001°59'1011.5
2018-Jul-05 21:36N 37°08' E 002°11'111.4
2018-Jul-05 21:30N 37°08' E 002°12'611.5
2018-Jul-05 21:00N 37°09' E 002°19'611.6
2018-Jul-05 20:29N 37°11' E 002°27'611.6
2018-Jul-05 19:58N 37°12' E 002°34'15411.9
2018-Jul-05 06:59N 37°27' E 005°47'1412.7
2018-Jul-05 05:51N 37°28' E 006°05'7611.6
2018-Jul-04 23:19N 37°33' E 007°40'2511.4
2018-Jul-04 21:08N 37°35' E 008°12'  

Dump ship's entire track history